createdAt,value
2023-05-09T05:03:06.382Z,42.25
2023-05-09T05:04:07.266Z,42.28
2023-05-09T05:05:12.060Z,42.26
2023-05-09T05:06:07.257Z,42.26
2023-05-09T05:07:06.245Z,42.23
2023-05-09T05:08:07.236Z,42.17
2023-05-09T05:09:07.277Z,42.19
2023-05-09T05:10:07.216Z,42.19
2023-05-09T05:11:06.196Z,42.15
2023-05-09T05:12:08.910Z,42.17
2023-05-09T05:13:07.311Z,42.14
2023-05-09T05:14:07.181Z,42.14
2023-05-09T05:15:06.179Z,42.14
2023-05-09T05:16:07.187Z,42.11
2023-05-09T05:17:06.170Z,42.03
2023-05-09T05:18:07.223Z,42.10
2023-05-09T05:19:06.312Z,42.04
2023-05-09T05:20:06.140Z,42.10
2023-05-09T05:21:07.141Z,42.02
2023-05-09T05:22:06.127Z,42.02
2023-05-09T05:23:06.119Z,42.02
2023-05-09T05:24:07.103Z,41.99
2023-05-09T05:25:07.121Z,41.98
2023-05-09T05:26:06.099Z,41.96
2023-05-09T05:27:07.098Z,41.98
2023-05-09T05:28:07.095Z,41.98
2023-05-09T05:29:06.115Z,42.02
2023-05-09T05:30:06.178Z,42.02
2023-05-09T05:31:07.121Z,41.94
2023-05-09T05:32:07.070Z,41.96
2023-05-09T05:33:06.170Z,41.96
2023-05-09T05:34:06.066Z,41.91
2023-05-09T05:35:06.169Z,41.94
2023-05-09T05:36:07.030Z,41.94
2023-05-09T05:37:07.034Z,41.94
2023-05-09T05:38:06.087Z,41.93
2023-05-09T05:39:06.041Z,41.96
2023-05-09T05:40:07.001Z,41.91
2023-05-09T05:41:06.989Z,41.91
2023-05-09T05:42:07.082Z,41.90
2023-05-09T05:43:06.983Z,41.89
2023-05-09T05:44:06.956Z,41.86
2023-05-09T05:45:05.975Z,41.87
2023-05-09T05:46:05.993Z,41.92
2023-05-09T05:47:06.943Z,41.90
2023-05-09T05:48:05.967Z,41.97
2023-05-09T05:49:05.930Z,41.93
2023-05-09T05:50:06.926Z,42.03
2023-05-09T05:51:07.042Z,42.05
2023-05-09T05:52:06.900Z,42.03
2023-05-09T05:53:06.894Z,42.10
2023-05-09T05:54:06.881Z,42.09
2023-05-09T05:55:06.960Z,42.12
2023-05-09T05:56:06.897Z,42.10
2023-05-09T05:57:06.878Z,42.14
2023-05-09T05:58:06.917Z,42.16
2023-05-09T05:59:06.931Z,42.17
2023-05-09T06:00:05.907Z,42.14
2023-05-09T06:01:05.911Z,42.17
2023-05-09T06:02:06.010Z,42.09
2023-05-09T06:03:06.024Z,42.12
2023-05-09T06:04:07.021Z,42.13
2023-05-09T06:05:06.965Z,42.17
2023-05-09T06:06:05.996Z,42.08
2023-05-09T06:07:06.128Z,42.07
2023-05-09T06:08:06.014Z,42.09
2023-05-09T06:09:07.087Z,42.11
2023-05-09T06:10:07.080Z,42.08
2023-05-09T06:11:07.041Z,42.12
2023-05-09T06:12:07.091Z,42.11
2023-05-09T06:13:07.192Z,42.12
2023-05-09T06:14:07.069Z,42.11
2023-05-09T06:15:06.112Z,42.06
2023-05-09T06:16:18.666Z,42.06
2023-05-09T06:17:07.230Z,42.07
2023-05-09T06:18:07.191Z,41.99
2023-05-09T06:19:07.160Z,41.97
2023-05-09T06:20:07.135Z,41.96
2023-05-09T06:21:06.095Z,42.00
2023-05-09T06:22:07.156Z,41.92
2023-05-09T06:23:07.184Z,41.95
2023-05-09T06:24:14.241Z,41.86
2023-05-09T06:25:09.559Z,41.87
2023-05-09T06:26:07.032Z,41.95
2023-05-09T06:27:07.028Z,41.91
2023-05-09T06:28:06.021Z,41.86
2023-05-09T06:29:06.016Z,41.83
2023-05-09T06:30:23.669Z,41.85
2023-05-09T06:31:07.033Z,41.94
2023-05-09T06:32:06.006Z,41.90
2023-05-09T06:33:06.030Z,41.96
2023-05-09T06:34:06.972Z,41.99
2023-05-09T06:35:05.970Z,41.94
2023-05-09T06:36:06.957Z,41.94
2023-05-09T06:37:06.956Z,41.82
2023-05-09T06:38:06.959Z,41.88
2023-05-09T06:39:07.055Z,41.80
2023-05-09T06:40:06.930Z,41.78
2023-05-09T06:41:06.920Z,41.75
2023-05-09T06:42:05.918Z,41.91
2023-05-09T06:43:05.905Z,41.89
2023-05-09T06:44:05.899Z,41.89
2023-05-09T06:45:06.947Z,42.00
2023-05-09T06:46:05.943Z,41.93
2023-05-09T06:47:05.863Z,41.90
2023-05-09T06:48:06.897Z,41.93
2023-05-09T06:49:06.852Z,41.96
2023-05-09T06:50:05.852Z,41.96
2023-05-09T06:51:05.847Z,41.97
2023-05-09T06:52:05.850Z,41.90
2023-05-09T06:53:05.834Z,41.78
2023-05-09T06:54:05.846Z,41.78
2023-05-09T06:55:05.939Z,41.75
2023-05-09T06:56:06.807Z,41.81
2023-05-09T06:57:05.796Z,41.70
2023-05-09T06:58:06.796Z,41.78
2023-05-09T06:59:05.781Z,41.81
2023-05-09T07:00:06.842Z,41.64
2023-05-09T07:01:06.764Z,41.74
2023-05-09T07:02:06.822Z,41.82
2023-05-09T07:03:05.805Z,41.80
2023-05-09T07:04:06.759Z,41.73
2023-05-09T07:05:06.817Z,41.77
2023-05-09T07:06:06.753Z,41.73
2023-05-09T07:07:05.738Z,41.81
2023-05-09T07:08:05.734Z,41.69
2023-05-09T07:09:06.728Z,41.68
2023-05-09T07:11:05.845Z,41.62
2023-05-09T07:12:05.708Z,41.63
2023-05-09T07:13:06.702Z,41.71
2023-05-09T07:14:05.696Z,41.75
2023-05-09T07:15:06.698Z,41.80
2023-05-09T07:16:06.837Z,41.71
2023-05-09T07:17:21.701Z,41.80
2023-05-09T07:18:06.709Z,41.77
2023-05-09T07:19:06.783Z,41.80
2023-05-09T07:20:06.651Z,41.77
2023-05-09T07:21:05.628Z,41.74
2023-05-09T07:22:05.688Z,41.76
2023-05-09T07:23:06.644Z,41.77
2023-05-09T07:24:06.624Z,41.69
2023-05-09T07:25:05.646Z,41.75
2023-05-09T07:26:05.604Z,41.76
2023-05-09T07:27:06.768Z,41.74
2023-05-09T07:28:06.679Z,41.74
2023-05-09T07:29:06.585Z,41.71
2023-05-09T07:30:05.613Z,41.85
2023-05-09T07:31:05.588Z,41.80
2023-05-09T07:32:06.655Z,41.86
2023-05-09T07:33:06.698Z,41.87
2023-05-09T07:34:06.540Z,41.92
2023-05-09T07:35:06.545Z,41.91
2023-05-09T07:36:05.609Z,41.78
2023-05-09T07:37:06.550Z,41.94
2023-05-09T07:38:06.520Z,41.98
2023-05-09T07:39:06.514Z,41.94
2023-05-09T07:40:05.512Z,41.86
2023-05-09T07:41:06.497Z,41.82
2023-05-09T07:42:06.483Z,41.88
2023-05-09T07:43:05.620Z,41.90
2023-05-09T07:44:06.466Z,41.90
2023-05-09T07:45:06.494Z,42.04
2023-05-09T07:46:05.522Z,42.00
2023-05-09T07:47:06.458Z,42.11
2023-05-09T07:48:06.498Z,42.12
2023-05-09T07:49:05.439Z,42.15
2023-05-09T07:50:05.873Z,42.50
2023-05-09T07:51:06.424Z,42.30
2023-05-09T07:52:05.416Z,42.57
2023-05-09T07:53:06.403Z,42.81
2023-05-09T07:54:06.437Z,42.72
2023-05-09T07:55:05.501Z,43.12
2023-05-09T07:56:06.532Z,43.34
2023-05-09T07:57:05.581Z,43.57
2023-05-09T07:58:05.650Z,43.69
2023-05-09T07:59:05.879Z,43.98
2023-05-09T08:00:05.785Z,44.50
2023-05-09T08:01:05.825Z,44.36
2023-05-09T08:02:07.125Z,44.86
2023-05-09T08:03:07.063Z,44.28
2023-05-09T08:04:07.083Z,44.65
2023-05-09T08:05:07.069Z,44.89
2023-05-09T08:06:07.139Z,44.65
2023-05-09T08:07:07.182Z,45.03
2023-05-09T08:08:06.224Z,44.93
2023-05-09T08:09:07.275Z,45.10
2023-05-09T08:10:06.345Z,45.27
2023-05-09T08:11:07.395Z,45.54
2023-05-09T08:12:06.442Z,45.14
2023-05-09T08:13:06.491Z,45.34
2023-05-09T08:14:07.513Z,45.76
2023-05-09T08:15:06.776Z,46.07
2023-05-09T08:16:07.714Z,45.57
2023-05-09T08:17:06.657Z,45.60
2023-05-09T08:18:06.722Z,45.39
2023-05-09T08:19:06.727Z,45.92
2023-05-09T08:20:06.781Z,45.82
2023-05-09T08:21:07.808Z,46.28
2023-05-09T08:22:07.864Z,46.35
2023-05-09T08:23:07.898Z,46.44
2023-05-09T08:24:06.977Z,46.48
2023-05-09T08:25:07.005Z,46.45
2023-05-09T08:26:08.031Z,46.45
2023-05-09T08:27:07.073Z,46.23
2023-05-09T08:28:07.087Z,46.32
2023-05-09T08:29:07.128Z,45.93
2023-05-09T08:30:07.206Z,46.37
2023-05-09T08:31:07.379Z,46.27
2023-05-09T08:32:07.267Z,46.38
2023-05-09T08:33:07.369Z,46.22
2023-05-09T08:34:08.419Z,46.06
2023-05-09T08:35:08.427Z,46.04
2023-05-09T08:36:08.505Z,46.45
2023-05-09T08:37:07.494Z,46.57
2023-05-09T08:38:07.541Z,46.53
2023-05-09T08:39:07.578Z,46.75
2023-05-09T08:40:08.660Z,46.64
2023-05-09T08:41:07.676Z,46.57
2023-05-09T08:42:08.718Z,46.79
2023-05-09T08:43:07.749Z,46.35
2023-05-09T08:44:07.795Z,46.46
2023-05-09T08:45:08.935Z,46.48
2023-05-09T08:46:08.916Z,46.58
2023-05-09T08:47:09.057Z,46.50
2023-05-09T08:48:08.071Z,46.53
2023-05-09T08:49:09.015Z,46.79
2023-05-09T08:50:08.029Z,46.53
2023-05-09T08:51:09.089Z,46.85
2023-05-09T08:52:09.127Z,46.70
2023-05-09T08:53:09.188Z,46.53
2023-05-09T08:54:08.238Z,47.13
2023-05-09T08:55:09.422Z,47.20
2023-05-09T08:56:09.313Z,46.85
2023-05-09T08:57:08.351Z,46.97
2023-05-09T08:58:08.425Z,46.68
2023-05-09T08:59:09.490Z,47.02
2023-05-09T09:00:08.564Z,46.88
2023-05-09T09:01:09.588Z,47.21
2023-05-09T09:02:09.754Z,46.91
2023-05-09T09:03:09.884Z,47.56
2023-05-09T09:04:09.816Z,47.58
2023-05-09T09:05:19.641Z,47.52
2023-05-09T09:06:09.807Z,47.28
2023-05-09T09:07:09.876Z,47.07
2023-05-09T09:08:09.793Z,47.01
2023-05-09T09:09:09.812Z,47.19
2023-05-09T09:10:09.763Z,47.31
2023-05-09T09:11:08.799Z,46.80
2023-05-09T09:12:09.767Z,47.76
2023-05-09T09:13:09.786Z,48.06
2023-05-09T09:14:09.764Z,47.49
2023-05-09T09:15:09.738Z,47.09
2023-05-09T09:16:08.821Z,47.74
2023-05-09T09:17:09.730Z,47.81
2023-05-09T09:18:09.759Z,47.85
2023-05-09T09:19:09.839Z,46.93
2023-05-09T09:20:09.758Z,47.70
2023-05-09T09:21:09.714Z,47.91
2023-05-09T09:22:08.703Z,47.72
2023-05-09T09:23:09.684Z,47.51
2023-05-09T09:24:09.686Z,47.52
2023-05-09T09:25:09.668Z,47.20
2023-05-09T09:26:09.677Z,47.96
2023-05-09T09:27:09.672Z,48.13
2023-05-09T09:28:09.642Z,47.87
2023-05-09T09:29:08.660Z,47.05
2023-05-09T09:30:09.648Z,47.85
2023-05-09T09:31:08.693Z,47.61
2023-05-09T09:32:08.858Z,46.85
2023-05-09T09:33:08.964Z,47.66
2023-05-09T09:34:09.843Z,47.26
2023-05-09T09:35:08.936Z,47.32
2023-05-09T09:36:09.005Z,46.02
2023-05-09T09:37:10.004Z,47.00
2023-05-09T09:38:10.007Z,45.79
2023-05-09T09:39:09.095Z,47.05
2023-05-09T09:40:10.012Z,47.00
2023-05-09T09:41:10.035Z,47.26
2023-05-09T09:42:10.077Z,47.35
2023-05-09T09:43:10.141Z,47.03
2023-05-09T09:44:09.193Z,47.05
2023-05-09T09:45:10.244Z,45.60
2023-05-09T09:46:10.298Z,46.17
2023-05-09T09:47:10.251Z,45.69
2023-05-09T09:48:10.380Z,46.83
2023-05-09T09:49:10.299Z,46.86
2023-05-09T09:50:09.328Z,46.35
2023-05-09T09:51:10.558Z,45.95
2023-05-09T09:52:10.390Z,46.60
2023-05-09T09:53:09.414Z,46.82
2023-05-09T09:54:10.429Z,46.72
2023-05-09T09:55:09.524Z,46.54
2023-05-09T09:56:10.434Z,46.99
2023-05-09T09:57:10.440Z,47.26
2023-05-09T09:58:10.459Z,47.33
2023-05-09T09:59:10.493Z,47.11
2023-05-09T10:00:10.534Z,47.73
2023-05-09T10:01:10.576Z,47.60
2023-05-09T10:02:09.601Z,47.54
2023-05-09T10:03:10.703Z,47.76
2023-05-09T10:04:10.824Z,47.28
2023-05-09T10:05:09.779Z,47.06
2023-05-09T10:06:10.785Z,47.16
2023-05-09T10:07:12.897Z,46.93
2023-05-09T10:08:09.787Z,46.91
2023-05-09T10:09:10.755Z,46.77
2023-05-09T10:10:10.752Z,46.86
2023-05-09T10:11:10.745Z,47.25
2023-05-09T10:12:10.768Z,46.74
2023-05-09T10:13:09.741Z,46.76
2023-05-09T10:14:09.738Z,46.72
2023-05-09T10:15:10.746Z,46.60
2023-05-09T10:16:10.850Z,46.50
2023-05-09T10:17:10.773Z,46.46
2023-05-09T10:18:10.820Z,46.21
2023-05-09T10:19:10.779Z,46.76
2023-05-09T10:20:10.834Z,46.18
2023-05-09T10:21:10.829Z,45.51
2023-05-09T10:22:09.840Z,46.22
2023-05-09T10:23:09.986Z,46.55
2023-05-09T10:24:09.870Z,46.60
2023-05-09T10:25:09.908Z,45.93
2023-05-09T10:26:10.915Z,46.22
2023-05-09T10:27:09.919Z,46.45
2023-05-09T10:28:10.945Z,46.49
2023-05-09T10:29:09.981Z,46.36
2023-05-09T10:30:11.017Z,46.84
2023-05-09T10:31:11.102Z,46.89
2023-05-09T10:32:11.121Z,46.89
2023-05-09T10:33:10.209Z,46.24
2023-05-09T10:34:10.197Z,45.65
2023-05-09T10:35:11.204Z,46.33
2023-05-09T10:36:10.352Z,46.78
2023-05-09T10:37:11.177Z,46.57
2023-05-09T10:38:10.190Z,46.87
2023-05-09T10:39:11.346Z,46.80
2023-05-09T10:40:11.190Z,47.21
2023-05-09T10:41:11.238Z,46.61
2023-05-09T10:42:10.242Z,46.60
2023-05-09T10:43:10.284Z,46.42
2023-05-09T10:44:10.303Z,46.64
2023-05-09T10:45:10.360Z,47.22
2023-05-09T10:46:10.511Z,47.27
2023-05-09T10:47:12.312Z,47.21
2023-05-09T10:48:11.541Z,47.39
2023-05-09T10:49:11.597Z,47.98
2023-05-09T10:50:11.649Z,47.84
2023-05-09T10:51:10.720Z,47.96
2023-05-09T10:52:10.746Z,48.26
2023-05-09T10:53:11.827Z,47.82
2023-05-09T10:54:10.850Z,47.51
2023-05-09T10:55:11.012Z,47.45
2023-05-09T10:56:11.946Z,47.45
2023-05-09T10:57:11.973Z,47.29
2023-05-09T10:58:12.007Z,47.97
2023-05-09T10:59:12.061Z,47.10
2023-05-09T11:00:11.081Z,47.35
2023-05-09T11:01:12.150Z,47.27
2023-05-09T11:02:11.119Z,45.52
2023-05-09T11:03:11.257Z,47.06
2023-05-09T11:04:12.204Z,47.01
2023-05-09T11:05:12.345Z,47.05
2023-05-09T11:06:11.418Z,47.00
2023-05-09T11:07:11.290Z,46.86
2023-05-09T11:08:11.319Z,46.82
2023-05-09T11:09:11.355Z,46.93
2023-05-09T11:10:12.362Z,46.70
2023-05-09T11:11:12.400Z,46.59
2023-05-09T11:12:12.399Z,46.71
2023-05-09T11:13:12.479Z,46.59
2023-05-09T11:14:12.398Z,46.64
2023-05-09T11:15:12.542Z,46.48
2023-05-09T11:16:11.469Z,45.65
2023-05-09T11:17:12.449Z,46.20
2023-05-09T11:18:12.497Z,46.24
2023-05-09T11:19:12.481Z,46.21
2023-05-09T11:20:11.494Z,43.02
2023-05-09T11:21:11.509Z,45.04
2023-05-09T11:22:12.558Z,45.19
2023-05-09T11:23:12.601Z,43.37
2023-05-09T11:24:11.625Z,44.62
2023-05-09T11:25:11.659Z,45.23
2023-05-09T11:26:11.679Z,44.98
2023-05-09T11:27:12.742Z,45.09
2023-05-09T11:28:12.753Z,44.77
2023-05-09T11:29:11.777Z,45.28
2023-05-09T11:30:12.814Z,45.32
2023-05-09T11:31:12.859Z,45.15
2023-05-09T11:32:12.971Z,42.07
2023-05-09T11:33:12.942Z,42.47
2023-05-09T11:34:12.940Z,41.75
2023-05-09T11:35:12.159Z,41.32
2023-05-09T11:36:13.471Z,40.77
2023-05-09T11:37:13.046Z,39.08
2023-05-09T11:38:12.072Z,42.40
2023-05-09T11:39:13.075Z,42.71
2023-05-09T11:40:13.101Z,42.56
2023-05-09T11:41:13.454Z,42.47
2023-05-09T11:42:13.967Z,43.16
2023-05-09T11:43:12.225Z,43.66
2023-05-09T11:44:13.114Z,41.61
2023-05-09T11:45:13.525Z,41.12
2023-05-09T11:46:12.233Z,40.41
2023-05-09T11:47:12.185Z,40.88
2023-05-09T11:48:12.192Z,41.11
2023-05-09T11:49:15.196Z,40.54
2023-05-09T11:50:13.195Z,40.03
2023-05-09T11:51:13.189Z,40.93
2023-05-09T11:52:13.177Z,39.97
2023-05-09T11:53:12.190Z,40.00
2023-05-09T11:54:12.160Z,40.37
2023-05-09T11:55:13.189Z,39.71
2023-05-09T11:56:12.160Z,39.93
2023-05-09T11:57:12.165Z,40.65
2023-05-09T11:58:13.122Z,40.77
2023-05-09T11:59:13.256Z,40.64
2023-05-09T12:00:13.104Z,41.25
2023-05-09T12:01:13.124Z,38.14
2023-05-09T12:02:12.289Z,38.54
2023-05-09T12:03:13.190Z,39.22
2023-05-09T12:04:12.101Z,39.09
2023-05-09T12:05:13.514Z,39.28
2023-05-09T12:06:13.101Z,39.62
2023-05-09T12:07:13.072Z,39.34
2023-05-09T12:08:12.060Z,40.00
2023-05-09T12:09:12.070Z,39.96
2023-05-09T12:10:12.051Z,38.41
2023-05-09T12:11:13.029Z,38.93
2023-05-09T12:12:12.032Z,39.09
2023-05-09T12:13:13.204Z,38.85
2023-05-09T12:14:12.019Z,38.65
2023-05-09T12:15:13.205Z,39.12
2023-05-09T12:16:13.074Z,39.10
2023-05-09T12:17:13.000Z,37.96
2023-05-09T12:18:11.991Z,37.83
2023-05-09T12:19:12.973Z,38.70
2023-05-09T12:20:12.985Z,38.84
2023-05-09T12:21:11.945Z,37.37
2023-05-09T12:22:12.948Z,37.83
2023-05-09T12:23:11.925Z,37.27
2023-05-09T12:24:11.928Z,37.61
2023-05-09T12:25:12.097Z,37.25
2023-05-09T12:26:12.903Z,37.45
2023-05-09T12:27:12.918Z,38.02
2023-05-09T12:28:12.902Z,38.27
2023-05-09T12:29:12.885Z,37.48
2023-05-09T12:30:12.870Z,37.92
2023-05-09T12:31:12.030Z,37.46
2023-05-09T12:32:12.873Z,37.27
2023-05-09T12:33:11.866Z,37.49
2023-05-09T12:34:12.854Z,38.06
2023-05-09T12:35:13.130Z,38.12
2023-05-09T12:36:12.867Z,37.90
2023-05-09T12:37:12.866Z,38.23
2023-05-09T12:38:11.875Z,37.94
2023-05-09T12:39:12.885Z,38.14
2023-05-09T12:40:13.081Z,37.98
2023-05-09T12:41:29.622Z,37.89
2023-05-09T12:42:12.937Z,37.37
2023-05-09T12:43:11.925Z,37.45
2023-05-09T12:44:12.949Z,38.11
2023-05-09T12:45:11.945Z,38.21
2023-05-09T12:46:12.965Z,37.98
2023-05-09T12:47:12.045Z,38.05
2023-05-09T12:48:12.953Z,38.06
2023-05-09T12:49:12.899Z,37.31
2023-05-09T12:50:11.883Z,37.80
2023-05-09T12:51:11.869Z,37.95
2023-05-09T12:52:11.866Z,37.64
2023-05-09T12:53:12.852Z,37.57
2023-05-09T12:54:12.838Z,37.24
2023-05-09T12:55:13.075Z,38.07
2023-05-09T12:56:11.835Z,37.30
2023-05-09T12:57:11.829Z,37.13
2023-05-09T12:58:11.833Z,37.51
2023-05-09T12:59:11.820Z,37.83
2023-05-09T13:00:12.915Z,37.02
2023-05-09T13:01:12.828Z,36.71
2023-05-09T13:02:12.802Z,37.17
2023-05-09T13:03:12.968Z,36.80
2023-05-09T13:04:12.731Z,37.14
2023-05-09T13:05:13.037Z,36.93
2023-05-09T13:06:11.781Z,37.01
2023-05-09T13:07:12.758Z,36.70
2023-05-09T13:08:12.739Z,36.67
2023-05-09T13:09:12.746Z,36.92
2023-05-09T13:10:12.651Z,36.31
2023-05-09T13:11:16.270Z,36.90
2023-05-09T13:12:12.731Z,36.76
2023-05-09T13:13:11.812Z,36.56
2023-05-09T13:14:11.715Z,36.02
2023-05-09T13:15:12.986Z,36.31
2023-05-09T13:16:13.518Z,36.53
2023-05-09T13:17:11.726Z,36.67
2023-05-09T13:18:11.705Z,36.77
2023-05-09T13:19:12.890Z,36.43
2023-05-09T13:20:12.956Z,36.93
2023-05-09T13:21:11.669Z,37.07
2023-05-09T13:22:12.714Z,37.19
2023-05-09T13:23:11.638Z,36.80
2023-05-09T13:24:11.639Z,36.70
2023-05-09T13:25:12.632Z,36.54
2023-05-09T13:26:12.633Z,36.57
2023-05-09T13:27:11.620Z,36.67
2023-05-09T13:28:12.599Z,36.99
2023-05-09T13:29:12.590Z,36.01
2023-05-09T13:30:12.921Z,36.47
2023-05-09T13:31:11.700Z,36.47
2023-05-09T13:32:11.572Z,36.64
2023-05-09T13:33:24.526Z,36.77
2023-05-09T13:34:12.563Z,36.51
2023-05-09T13:35:12.687Z,36.47
2023-05-09T13:36:12.568Z,36.61
2023-05-09T13:37:11.550Z,36.71
2023-05-09T13:38:11.525Z,36.36
2023-05-09T13:39:12.520Z,36.82
2023-05-09T13:40:12.653Z,36.71
2023-05-09T13:41:11.505Z,37.14
2023-05-09T13:42:12.518Z,36.98
2023-05-09T13:43:11.542Z,37.00
2023-05-09T13:44:11.486Z,36.85
2023-05-09T13:45:12.582Z,37.10
2023-05-09T13:46:12.487Z,37.14
2023-05-09T13:47:12.464Z,37.41
2023-05-09T13:48:12.519Z,37.44
2023-05-09T13:49:11.463Z,37.50
2023-05-09T13:50:12.866Z,37.72
2023-05-09T13:51:11.577Z,37.64
2023-05-09T13:52:11.425Z,37.48
2023-05-09T13:53:11.428Z,37.66
2023-05-09T13:54:12.429Z,37.68
2023-05-09T13:55:12.418Z,37.89
2023-05-09T13:56:12.409Z,37.79
2023-05-09T13:57:11.404Z,37.60
2023-05-09T13:58:12.382Z,37.52
2023-05-09T13:59:11.378Z,37.54
2023-05-09T14:00:13.820Z,37.61
2023-05-09T14:01:12.459Z,37.74
2023-05-09T14:02:12.365Z,36.26
2023-05-09T14:03:12.356Z,36.97
2023-05-09T14:04:11.359Z,37.04
2023-05-09T14:05:12.336Z,37.15
2023-05-09T14:06:13.417Z,37.22
2023-05-09T14:07:11.455Z,37.31
2023-05-09T14:08:12.362Z,37.90
2023-05-09T14:09:12.298Z,37.94
2023-05-09T14:10:12.544Z,37.93
2023-05-09T14:11:12.294Z,37.86
2023-05-09T14:12:12.467Z,38.17
2023-05-09T14:13:11.405Z,38.08
2023-05-09T14:14:11.316Z,38.43
2023-05-09T14:15:11.364Z,38.69
2023-05-09T14:16:12.325Z,38.65
2023-05-09T14:17:12.271Z,38.78
2023-05-09T14:18:15.955Z,39.07
2023-05-09T14:19:12.228Z,39.64
2023-05-09T14:20:12.225Z,39.28
2023-05-09T14:21:12.208Z,38.85
2023-05-09T14:22:11.202Z,38.53
2023-05-09T14:23:12.332Z,38.66
2023-05-09T14:24:12.963Z,38.63
2023-05-09T14:25:11.198Z,38.94
2023-05-09T14:26:12.173Z,38.75
2023-05-09T14:27:12.176Z,38.73
2023-05-09T14:28:12.160Z,38.13
2023-05-09T14:29:12.149Z,38.62
2023-05-09T14:30:12.143Z,38.37
2023-05-09T14:31:12.176Z,37.90
2023-05-09T14:32:11.134Z,38.06
2023-05-09T14:33:12.117Z,38.11
2023-05-09T14:34:12.113Z,38.55
2023-05-09T14:35:12.177Z,38.46
2023-05-09T14:36:11.149Z,38.63
2023-05-09T14:37:12.088Z,38.38
2023-05-09T14:38:12.093Z,38.43
2023-05-09T14:39:11.244Z,38.47
2023-05-09T14:40:11.069Z,38.04
2023-05-09T14:41:12.057Z,38.24
2023-05-09T14:42:12.054Z,38.01
2023-05-09T14:43:11.177Z,37.82
2023-05-09T14:44:12.038Z,37.20
2023-05-09T14:45:12.103Z,37.81
2023-05-09T14:46:12.035Z,37.64
2023-05-09T14:47:11.073Z,37.34
2023-05-09T14:48:11.883Z,37.72
2023-05-09T14:49:11.034Z,37.52
2023-05-09T14:50:10.991Z,37.56
2023-05-09T14:51:12.004Z,37.32
2023-05-09T14:52:10.996Z,37.15
2023-05-09T14:53:11.983Z,37.29
2023-05-09T14:54:12.024Z,37.43
2023-05-09T14:55:12.082Z,37.29
2023-05-09T14:56:11.964Z,37.29
2023-05-09T14:57:10.973Z,37.12
2023-05-09T14:58:11.953Z,36.63
2023-05-09T14:59:11.947Z,36.85
2023-05-09T15:00:20.543Z,36.92
2023-05-09T15:01:11.970Z,36.56
2023-05-09T15:02:11.929Z,36.71
2023-05-09T15:03:11.046Z,36.38
2023-05-09T15:04:10.926Z,36.66
2023-05-09T15:05:11.952Z,36.36
2023-05-09T15:06:10.886Z,36.18
2023-05-09T15:07:11.892Z,36.50
2023-05-09T15:08:11.876Z,36.28
2023-05-09T15:09:11.879Z,36.13
2023-05-09T15:10:10.868Z,36.60
2023-05-09T15:11:11.978Z,36.32
2023-05-09T15:12:11.851Z,36.71
2023-05-09T15:13:11.869Z,36.53
2023-05-09T15:14:10.841Z,36.00
2023-05-09T15:15:10.817Z,36.05
2023-05-09T15:16:11.854Z,36.06
2023-05-09T15:17:11.851Z,36.24
2023-05-09T15:18:11.806Z,36.13
2023-05-09T15:19:11.805Z,36.26
2023-05-09T15:20:10.783Z,36.52
2023-05-09T15:21:11.772Z,36.09
2023-05-09T15:22:10.766Z,36.43
2023-05-09T15:23:11.809Z,36.31
2023-05-09T15:24:11.755Z,36.19
2023-05-09T15:25:10.754Z,36.35
2023-05-09T15:26:10.735Z,36.48
2023-05-09T15:27:11.862Z,35.98
2023-05-09T15:28:11.727Z,35.89
2023-05-09T15:29:11.726Z,35.77
